Time;durP1;ratioP1;P1;durP2;ratioP2;P2;SDS_P1;SDS_P2;PMS_P1;PMS_P2;Temp;Humidity;BMP_temperature;BMP_pressure;BME280_temperature;BME280_humidity;BME280_pressure;Samples;Min_cycle;Max_cycle;Signal;HPM_P1;HPM_P2
2022/01/28 00:00:32;;;;;;;3.32;1.72;;;;;;;8.43;57.75;102028.41;682948;28;1107;-81
2022/01/28 00:01:01;;;;;;;5.45;1.80;;;;;;;8.50;57.66;102020.13;687818;28;1210;-81
2022/01/28 00:01:27;;;;;;;6.05;1.70;;;;;;;8.45;58.05;102017.28;686171;28;1347;-81
2022/01/28 00:01:57;;;;;;;2.92;1.42;;;;;;;8.41;57.76;102014.41;682236;29;1540;-80
2022/01/28 00:03:06;;;;;;;3.33;1.80;;;;;;;8.32;58.35;102012.19;690709;28;1085;-81
2022/01/28 00:03:27;;;;;;;5.53;1.90;;;;;;;8.33;58.34;102026.97;693413;28;1232;-80
2022/01/28 00:03:48;;;;;;;6.55;1.45;;;;;;;8.29;57.97;102014.63;682736;28;1229;-81
2022/01/28 00:04:14;;;;;;;7.35;1.50;;;;;;;8.41;58.13;102025.69;685228;28;1182;-80
2022/01/28 00:05:00;;;;;;;7.57;1.60;;;;;;;8.35;58.12;102033.16;685484;28;1203;-81
2022/01/28 00:05:22;;;;;;;6.22;1.80;;;;;;;8.40;58.39;102036.91;687630;28;1608;-80
2022/01/28 00:05:43;;;;;;;8.35;1.58;;;;;;;8.29;58.07;102019.81;687941;28;1301;-81
2022/01/28 00:06:06;;;;;;;13.57;2.00;;;;;;;8.29;58.03;102025.91;687911;28;1175;-81
2022/01/28 00:06:26;;;;;;;14.68;2.10;;;;;;;8.22;58.63;102018.53;685296;28;1025;-81
2022/01/28 00:06:47;;;;;;;4.40;1.80;;;;;;;8.23;58.16;102016.03;688020;28;1367;-81
2022/01/28 00:07:07;;;;;;;4.33;1.70;;;;;;;8.33;58.11;102022.69;690523;28;972;-81
2022/01/28 00:07:28;;;;;;;5.30;1.63;;;;;;;8.33;58.56;102017.47;688663;28;1361;-81
2022/01/28 00:07:50;;;;;;;5.97;1.88;;;;;;;8.35;58.09;102020.16;690697;28;1174;-81
2022/01/28 00:08:10;;;;;;;4.85;1.70;;;;;;;8.41;58.25;102019.63;687762;28;1259;-81
2022/01/28 00:08:31;;;;;;;3.70;1.60;;;;;;;8.40;57.93;102018.72;688803;28;1068;-81
2022/01/28 00:08:51;;;;;;;4.18;1.50;;;;;;;8.43;57.71;102020.59;690726;28;870;-81
2022/01/28 00:09:12;;;;;;;7.53;1.70;;;;;;;8.42;57.49;102022.28;687906;28;1017;-81
2022/01/28 00:09:32;;;;;;;7.80;1.70;;;;;;;8.40;57.82;102033.44;687862;28;1135;-81
2022/01/28 00:09:53;;;;;;;8.50;1.70;;;;;;;8.41;58.17;102030.03;680356;28;1926;-81
2022/01/28 00:10:14;;;;;;;5.27;1.50;;;;;;;8.39;57.64;102022.13;685281;28;1162;-81
2022/01/28 00:10:38;;;;;;;4.30;1.45;;;;;;;8.46;57.77;102021.66;687883;28;1198;-81
2022/01/28 00:10:59;;;;;;;3.50;1.50;;;;;;;8.46;57.67;102034.69;687720;28;1903;-81
2022/01/28 00:11:20;;;;;;;4.55;1.83;;;;;;;8.50;57.82;102041.84;690766;28;1213;-81
2022/01/28 00:11:41;;;;;;;7.17;2.20;;;;;;;8.54;57.79;102036.81;688006;28;1048;-81
2022/01/28 00:12:02;;;;;;;7.28;2.20;;;;;;;8.53;57.51;102035.03;689921;28;1117;-81
2022/01/28 00:12:24;;;;;;;5.78;2.05;;;;;;;8.46;57.86;102039.88;690760;28;782;-81
2022/01/28 00:13:24;;;;;;;5.22;1.80;;;;;;;8.42;57.64;102022.28;690563;28;1189;-80
2022/01/28 00:13:57;;;;;;;6.57;1.40;;;;;;;8.47;57.43;102041.66;688135;28;1104;-81
2022/01/28 00:14:35;;;;;;;7.05;1.50;;;;;;;8.55;57.46;102054.22;693998;28;1201;-81
2022/01/28 00:15:07;;;;;;;3.35;1.40;;;;;;;8.45;58.00;102040.69;695453;28;1225;-80
2022/01/28 00:15:36;;;;;;;3.15;1.50;;;;;;;8.29;57.95;102045.81;694033;28;979;-81
2022/01/28 00:16:29;;;;;;;5.53;1.50;;;;;;;8.33;58.63;102052.97;696103;28;1047;-81
2022/01/28 00:18:20;;;;;;;5.93;1.55;;;;;;;8.27;58.30;102039.63;689036;28;988;-81
2022/01/28 00:18:48;;;;;;;7.10;1.70;;;;;;;8.47;58.24;102061.56;688723;28;1213;-81
2022/01/28 00:19:44;;;;;;;9.82;2.00;;;;;;;8.49;58.50;102050.44;690622;28;981;-81
2022/01/28 00:36:45;;;;;;;6.35;2.00;;;;;;;8.40;58.64;102073.34;690462;28;1077;-81
2022/01/28 00:38:11;;;;;;;8.35;1.85;;;;;;;8.44;58.22;102077.94;694764;28;1670;-81
2022/01/28 00:38:37;;;;;;;8.13;1.85;;;;;;;8.54;58.11;102097.53;688280;28;1255;-81
2022/01/28 00:38:58;;;;;;;7.10;1.90;;;;;;;8.40;58.19;102073.34;685347;28;851;-81
2022/01/28 00:39:18;;;;;;;6.07;1.70;;;;;;;8.52;58.22;102090.50;683510;28;1183;-81
2022/01/28 00:39:39;;;;;;;8.37;2.07;;;;;;;8.49;58.49;102097.28;686390;28;1049;-81
2022/01/28 00:39:59;;;;;;;8.93;2.15;;;;;;;8.42;58.32;102079.53;685220;28;1008;-81
2022/01/28 00:40:20;;;;;;;9.27;2.10;;;;;;;8.44;58.16;102083.13;687517;28;1269;-81
2022/01/28 00:40:41;;;;;;;5.72;1.80;;;;;;;8.45;57.93;102082.31;690476;28;1167;-81
2022/01/28 00:41:02;;;;;;;6.90;1.70;;;;;;;8.54;57.86;102094.94;690612;28;1065;-81
2022/01/28 00:41:23;;;;;;;7.38;1.73;;;;;;;8.45;57.99;102079.72;687964;28;783;-81
2022/01/28 00:41:43;;;;;;;8.63;1.80;;;;;;;8.48;57.95;102089.41;685150;28;1083;-81
2022/01/28 00:42:04;;;;;;;8.75;1.70;;;;;;;8.52;57.84;102095.69;690480;28;1188;-80
2022/01/28 00:42:25;;;;;;;6.95;1.60;;;;;;;8.52;57.86;102086.16;688011;28;910;-81
2022/01/28 00:42:45;;;;;;;5.53;1.60;;;;;;;8.49;57.70;102092.06;693406;28;1175;-81
2022/01/28 00:43:06;;;;;;;6.00;1.53;;;;;;;8.50;57.87;102085.19;687857;28;1044;-81
2022/01/28 00:43:27;;;;;;;7.00;1.90;;;;;;;8.52;57.89;102095.69;685880;28;1107;-80
2022/01/28 00:43:47;;;;;;;6.57;1.98;;;;;;;8.52;57.78;102095.69;685337;28;787;-81
2022/01/28 00:44:08;;;;;;;5.87;2.00;;;;;;;8.48;57.86;102092.91;687828;28;1091;-80
2022/01/28 00:44:28;;;;;;;6.03;1.98;;;;;;;8.40;57.82;102081.16;688797;28;1171;-81
2022/01/28 00:44:49;;;;;;;6.80;1.98;;;;;;;8.35;58.19;102083.47;687762;28;1053;-81
2022/01/28 00:45:10;;;;;;;6.73;1.80;;;;;;;8.37;58.19;102088.78;689096;28;1134;-81
2022/01/28 00:45:30;;;;;;;6.10;1.60;;;;;;;8.38;58.02;102087.97;688272;28;1303;-81
2022/01/28 00:45:51;;;;;;;6.70;1.63;;;;;;;8.35;58.02;102087.78;693326;28;1060;-81
2022/01/28 00:46:12;;;;;;;6.75;1.80;;;;;;;8.34;57.75;102096.38;690502;28;1053;-81
2022/01/28 00:46:32;;;;;;;9.10;2.20;;;;;;;8.36;58.26;102110.41;690589;28;740;-81
2022/01/28 00:46:53;;;;;;;9.93;2.45;;;;;;;8.26;58.13;102097.66;687754;28;1218;-81
2022/01/28 00:47:13;;;;;;;11.10;2.50;;;;;;;8.36;58.27;102105.22;689907;28;1254;-81
2022/01/28 00:47:34;;;;;;;10.35;2.10;;;;;;;8.28;57.77;102107.34;690552;28;1154;-81
2022/01/28 00:47:55;;;;;;;8.77;2.00;;;;;;;8.28;58.40;102103.84;690724;28;754;-81
2022/01/28 00:48:16;;;;;;;8.27;2.03;;;;;;;8.40;57.87;102114.97;687776;28;1438;-81
2022/01/28 00:48:37;;;;;;;8.88;2.17;;;;;;;8.38;57.68;102108.78;686616;28;1179;-81
2022/01/28 00:48:57;;;;;;;11.25;2.20;;;;;;;8.31;57.84;102109.22;682552;29;1358;-81
2022/01/28 00:49:18;;;;;;;9.77;2.20;;;;;;;8.34;57.73;102109.41;690518;28;1148;-81
2022/01/28 00:49:38;;;;;;;6.88;1.88;;;;;;;8.30;58.11;102110.03;689803;28;1213;-80
2022/01/28 00:49:59;;;;;;;3.17;1.83;;;;;;;8.27;57.68;102120.25;690435;28;1975;-81
2022/01/28 00:50:20;;;;;;;2.93;1.80;;;;;;;8.35;58.03;102127.69;690473;28;1069;-81
2022/01/28 00:50:42;;;;;;;3.78;2.30;;;;;;;8.31;57.98;102117.94;687209;28;1166;-81
2022/01/28 00:51:03;;;;;;;7.20;2.40;;;;;;;8.21;57.70;102116.50;687701;28;1165;-81
2022/01/28 00:51:23;;;;;;;8.13;2.40;;;;;;;8.27;58.17;102120.25;687870;28;1045;-81
2022/01/28 00:51:50;;;;;;;7.28;1.77;;;;;;;8.18;58.28;102116.28;688683;28;1217;-80
2022/01/28 00:52:10;;;;;;;6.20;1.70;;;;;;;8.23;58.06;102120.06;693206;28;1072;-81
2022/01/28 00:52:31;;;;;;;10.60;1.80;;;;;;;8.28;57.97;102116.88;686638;28;1205;-81
2022/01/28 00:52:51;;;;;;;15.98;2.38;;;;;;;8.15;58.12;102110.91;690528;28;816;-82
2022/01/28 00:53:12;;;;;;;14.37;2.40;;;;;;;8.25;57.90;102122.78;690487;28;1149;-81
2022/01/28 00:53:33;;;;;;;10.27;2.33;;;;;;;8.23;58.05;102119.16;687743;28;1287;-81
2022/01/28 00:53:53;;;;;;;6.28;2.05;;;;;;;8.28;57.78;102132.47;690505;28;911;-81
2022/01/28 00:54:29;;;;;;;7.47;2.20;;;;;;;8.22;58.06;102128.69;686580;28;1460;-81
2022/01/28 00:54:50;;;;;;;6.60;2.30;;;;;;;8.26;58.04;102131.47;687370;28;902;-81
2022/01/28 00:55:10;;;;;;;7.40;2.40;;;;;;;8.22;58.31;102120.88;689074;28;995;-80
2022/01/28 00:55:31;;;;;;;8.85;2.70;;;;;;;8.27;58.06;102115.03;689689;28;1378;-81
2022/01/28 00:55:54;;;;;;;7.70;2.25;;;;;;;8.32;58.20;102129.22;690436;28;1122;-82
2022/01/28 00:56:15;;;;;;;9.85;2.08;;;;;;;8.30;57.97;102130.84;693250;28;1001;-81
2022/01/28 00:56:35;;;;;;;9.17;2.00;;;;;;;8.37;58.04;102127.81;692046;28;1095;-81
2022/01/28 00:56:56;;;;;;;11.65;2.28;;;;;;;8.35;58.09;102119.00;689890;28;775;-81
2022/01/28 00:57:16;;;;;;;9.50;2.28;;;;;;;8.27;58.00;102107.25;685048;28;1236;-81
2022/01/28 00:57:37;;;;;;;10.33;2.10;;;;;;;8.23;58.23;102114.88;683961;28;1289;-81
2022/01/28 00:57:58;;;;;;;6.65;1.73;;;;;;;8.28;57.95;102114.25;687901;28;1169;-81
2022/01/28 00:58:18;;;;;;;7.75;1.70;;;;;;;8.27;58.21;102109.84;687740;28;1081;-81
2022/01/28 00:58:38;;;;;;;7.20;1.70;;;;;;;8.31;57.98;102117.94;687876;28;1044;-81
2022/01/28 00:58:59;;;;;;;8.90;1.70;;;;;;;8.32;57.66;102111.03;690591;28;1056;-81
2022/01/28 00:59:20;;;;;;;8.00;1.70;;;;;;;8.33;57.74;102120.63;683597;28;1729;-81
2022/01/28 00:59:40;;;;;;;8.05;1.70;;;;;;;8.25;57.50;102103.66;686008;28;1299;-81
2022/01/28 01:00:01;;;;;;;9.88;2.28;;;;;;;8.22;57.89;102123.47;685123;28;1199;-81
2022/01/28 01:00:21;;;;;;;11.20;2.10;;;;;;;8.23;58.03;102120.06;687686;28;1882;-81
2022/01/28 01:00:42;;;;;;;13.90;2.30;;;;;;;8.21;57.78;102111.28;687913;28;1092;-81
2022/01/28 01:01:02;;;;;;;11.53;2.20;;;;;;;8.23;58.15;102109.66;687803;28;1212;-81
2022/01/28 01:01:23;;;;;;;7.53;2.03;;;;;;;8.15;58.12;102102.22;685143;28;1115;-81
2022/01/28 01:01:44;;;;;;;5.25;1.92;;;;;;;8.13;58.11;102112.53;687755;28;1081;-81
2022/01/28 01:02:04;;;;;;;6.15;1.90;;;;;;;8.18;58.18;102111.09;687788;28;1138;-81
2022/01/28 01:02:25;;;;;;;7.77;2.10;;;;;;;8.22;58.11;102118.28;690519;28;1041;-81
2022/01/28 01:02:45;;;;;;;6.85;1.90;;;;;;;8.23;57.85;102117.47;687912;28;795;-81
2022/01/28 01:03:07;;;;;;;7.18;1.77;;;;;;;8.12;58.45;102115.94;687711;28;1158;-81
2022/01/28 01:03:27;;;;;;;6.05;1.70;;;;;;;8.09;58.08;102110.53;689979;28;1314;-81
2022/01/28 01:03:48;;;;;;;5.90;1.70;;;;;;;8.12;58.06;102121.16;687993;28;807;-81
2022/01/28 01:04:09;;;;;;;3.50;1.60;;;;;;;8.08;57.96;102112.28;690481;28;1176;-81
2022/01/28 01:04:29;;;;;;;3.35;1.52;;;;;;;8.09;58.22;102120.94;690375;28;1027;-81
2022/01/28 01:04:50;;;;;;;7.65;1.90;;;;;;;8.06;58.40;102116.44;687608;28;1694;-81
2022/01/28 01:05:11;;;;;;;6.72;2.00;;;;;;;8.05;58.30;102114.66;682771;28;1438;-81
2022/01/28 01:05:34;;;;;;;9.70;2.20;;;;;;;8.04;58.36;102118.06;687731;28;1214;-82
2022/01/28 01:05:54;;;;;;;7.78;2.28;;;;;;;8.06;58.46;102131.19;682528;29;878;-82
2022/01/28 01:06:15;;;;;;;7.80;2.30;;;;;;;8.10;58.75;102127.94;682420;29;1089;-82
2022/01/28 01:06:36;;;;;;;7.22;2.22;;;;;;;8.07;58.65;102117.38;682456;29;1104;-81
2022/01/28 01:06:56;;;;;;;7.85;2.03;;;;;;;8.12;58.74;102125.44;682543;29;820;-82
2022/01/28 01:07:17;;;;;;;7.73;2.10;;;;;;;8.19;58.38;102136.31;685201;28;1130;-81
2022/01/28 01:07:38;;;;;;;8.75;2.28;;;;;;;8.19;58.52;102135.41;690412;28;1197;-81
2022/01/28 01:07:59;;;;;;;6.22;2.13;;;;;;;8.24;58.45;102141.78;690396;28;1244;-81
2022/01/28 01:08:20;;;;;;;7.65;2.10;;;;;;;8.21;58.62;102139.91;684998;28;1159;-81
2022/01/28 01:08:40;;;;;;;4.57;1.90;;;;;;;8.13;58.24;102130.75;687773;28;1218;-81
2022/01/28 01:09:02;;;;;;;5.72;1.80;;;;;;;8.16;58.30;102133.50;690371;28;1305;-81
2022/01/28 01:09:23;;;;;;;6.43;2.30;;;;;;;8.25;58.41;102140.06;689894;28;1146;-81
2022/01/28 01:09:45;;;;;;;8.70;2.33;;;;;;;8.31;58.32;102135.25;690211;28;1188;-81
2022/01/28 01:10:08;;;;;;;8.27;2.60;;;;;;;8.35;57.86;102130.31;687660;28;1922;-81
2022/01/28 01:10:28;;;;;;;8.13;2.20;;;;;;;8.32;58.09;102129.22;690125;28;1964;-81
2022/01/28 01:10:52;;;;;;;6.07;2.00;;;;;;;8.25;57.69;102127.06;687783;28;1225;-81
2022/01/28 01:11:12;;;;;;;5.57;1.65;;;;;;;8.20;58.39;102135.50;687802;28;1149;-81
2022/01/28 01:11:33;;;;;;;7.07;1.70;;;;;;;8.29;58.34;102135.13;688711;28;1141;-81
2022/01/28 01:11:54;;;;;;;7.78;1.60;;;;;;;8.34;57.95;102138.00;692444;28;1486;-81
2022/01/28 01:12:18;;;;;;;11.07;1.90;;;;;;;8.35;58.14;102122.50;690493;28;1135;-81
2022/01/28 01:12:43;;;;;;;11.80;2.38;;;;;;;8.35;58.40;102142.41;685031;28;1238;-81
2022/01/28 01:13:04;;;;;;;9.68;2.28;;;;;;;8.37;57.87;102138.22;685094;28;1065;-81
2022/01/28 01:13:25;;;;;;;6.30;2.00;;;;;;;8.33;57.84;102131.03;685262;28;744;-81
2022/01/28 01:13:54;;;;;;;9.48;1.73;;;;;;;8.34;58.03;102133.72;687848;28;748;-81
2022/01/28 01:14:23;;;;;;;8.55;2.00;;;;;;;8.37;57.77;102146.00;687770;28;1139;-81
2022/01/28 01:14:45;;;;;;;9.77;2.15;;;;;;;8.30;57.65;102152.53;688574;28;1162;-81
2022/01/28 01:15:06;;;;;;;10.25;2.00;;;;;;;8.33;57.68;102144.03;685057;28;1293;-81
2022/01/28 01:15:33;;;;;;;11.45;2.03;;;;;;;8.35;57.81;102139.81;686116;28;1259;-81
2022/01/28 01:15:57;;;;;;;8.57;2.38;;;;;;;8.43;57.33;102150.69;687120;28;822;-81
2022/01/28 01:16:26;;;;;;;8.60;2.10;;;;;;;8.41;57.69;102149.69;682317;28;1382;-81
2022/01/28 01:17:40;;;;;;;3.22;1.95;;;;;;;8.34;57.63;102143.22;684513;28;2058;-81
2022/01/28 01:18:11;;;;;;;5.47;1.88;;;;;;;8.42;57.62;102157.56;685171;28;923;-81
2022/01/28 01:18:45;;;;;;;8.10;2.20;;;;;;;8.37;57.62;102148.63;688644;28;1351;-81
2022/01/28 01:19:22;;;;;;;9.27;2.15;;;;;;;8.40;57.62;102148.78;686258;28;1032;-81
2022/01/28 01:19:47;;;;;;;6.25;2.00;;;;;;;8.48;57.57;102150.13;686748;28;1894;-81
2022/01/28 01:21:23;;;;;;;6.05;2.00;;;;;;;8.45;56.89;102139.56;685980;28;1737;-82
2022/01/28 01:21:26;;;;;;;7.75;1.80;;;;;;;8.50;57.24;102155.44;682713;28;1293;-82
2022/01/28 01:21:53;;;;;;;6.85;1.95;;;;;;;8.57;57.25;102151.47;696044;28;811;-82
2022/01/28 01:22:14;;;;;;;5.32;2.00;;;;;;;8.48;57.21;102146.66;696000;28;1225;-82
2022/01/28 01:22:38;;;;;;;4.28;1.70;;;;;;;8.55;57.05;102156.63;694455;28;1081;-82
2022/01/28 01:23:15;;;;;;;3.05;1.60;;;;;;;8.49;56.99;102148.44;695275;28;1221;-81
2022/01/28 01:23:38;;;;;;;3.13;1.50;;;;;;;8.34;57.29;102149.31;690422;28;1059;-81
2022/01/28 01:23:59;;;;;;;5.20;1.55;;;;;;;8.38;57.60;102162.50;682409;28;1484;-81
2022/01/28 01:24:22;;;;;;;8.52;1.90;;;;;;;8.34;57.45;102148.41;685086;28;1096;-82
2022/01/28 01:24:52;;;;;;;12.95;2.13;;;;;;;8.29;57.18;102149.88;692813;28;1979;-82
2022/01/28 01:25:23;;;;;;;13.75;2.30;;;;;;;8.27;57.09;102151.44;693223;28;1087;-81
2022/01/28 01:25:48;;;;;;;9.05;2.28;;;;;;;8.38;57.05;102166.03;684962;28;1878;-81
2022/01/28 01:26:11;;;;;;;6.97;1.90;;;;;;;8.35;57.06;102158.00;687551;28;1132;-81
2022/01/28 01:26:35;;;;;;;6.63;1.80;;;;;;;8.40;57.51;102169.59;686735;28;1107;-81
2022/01/28 01:26:59;;;;;;;3.92;1.60;;;;;;;8.32;57.21;102165.66;685166;28;1408;-81
2022/01/28 01:27:20;;;;;;;3.50;1.60;;;;;;;8.40;57.05;102169.59;682331;28;1032;-81
2022/01/28 01:27:42;;;;;;;4.47;1.90;;;;;;;8.47;57.28;102165.66;681573;29;1143;-82
2022/01/28 01:28:03;;;;;;;4.55;1.83;;;;;;;8.34;57.06;102169.22;685166;28;1099;-81
2022/01/28 01:28:29;;;;;;;4.33;1.90;;;;;;;8.31;57.45;102166.44;685097;28;1216;-81
2022/01/28 01:28:49;;;;;;;4.10;1.80;;;;;;;8.19;57.34;102159.72;684928;28;2106;-81
2022/01/28 01:29:12;;;;;;;6.30;1.90;;;;;;;8.21;57.28;102165.91;685029;28;999;-81
2022/01/28 01:29:33;;;;;;;6.18;1.90;;;;;;;8.18;57.39;102152.69;686501;28;1214;-81
2022/01/28 01:29:53;;;;;;;8.20;1.70;;;;;;;8.21;57.48;102165.91;687579;28;1935;-81
2022/01/28 01:30:17;;;;;;;6.53;1.60;;;;;;;8.16;57.83;102151.72;687602;28;1190;-80
2022/01/28 01:30:40;;;;;;;7.03;1.90;;;;;;;8.18;57.50;102157.03;690772;28;1285;-82
2022/01/28 01:31:04;;;;;;;7.03;1.85;;;;;;;8.12;57.93;102162.75;690397;28;1163;-81
2022/01/28 01:31:25;;;;;;;7.55;1.67;;;;;;;8.10;58.19;102156.53;690427;28;1379;-81
2022/01/28 01:31:46;;;;;;;6.37;1.50;;;;;;;8.05;58.23;102158.88;687571;28;1543;-81
2022/01/28 01:32:16;;;;;;;4.88;1.50;;;;;;;8.11;58.24;102158.34;685077;28;1236;-80
2022/01/28 01:32:37;;;;;;;5.95;1.85;;;;;;;8.11;57.92;102155.72;683530;28;1095;-81
2022/01/28 01:32:58;;;;;;;7.75;2.40;;;;;;;8.13;58.77;102158.44;682618;29;760;-81
2022/01/28 01:33:20;;;;;;;6.38;2.40;;;;;;;8.04;58.31;102144.06;682431;29;1455;-81
2022/01/28 01:33:47;;;;;;;4.70;1.60;;;;;;;8.03;58.32;102146.56;685020;28;1321;-81
2022/01/28 01:34:21;;;;;;;6.38;1.60;;;;;;;8.11;58.74;102166.13;684986;28;1158;-80
2022/01/28 01:34:42;;;;;;;5.47;1.80;;;;;;;8.06;58.47;102157.19;685119;28;1139;-81
2022/01/28 01:35:02;;;;;;;3.90;1.70;;;;;;;8.08;58.98;102161.66;684846;28;1141;-81
2022/01/28 01:35:23;;;;;;;4.00;1.55;;;;;;;8.04;58.42;102154.47;687448;28;1301;-81
2022/01/28 01:35:43;;;;;;;3.78;1.52;;;;;;;8.07;58.67;102161.56;687700;28;1120;-81
2022/01/28 01:36:04;;;;;;;5.07;1.57;;;;;;;8.03;58.38;102162.16;687779;28;1075;-81
2022/01/28 01:36:25;;;;;;;5.13;1.80;;;;;;;8.04;58.80;102169.19;685105;28;1149;-81
2022/01/28 01:36:46;;;;;;;5.88;1.90;;;;;;;8.05;58.72;102160.59;685166;28;1296;-81
2022/01/28 01:37:10;;;;;;;5.63;2.05;;;;;;;8.13;58.78;102174.94;685086;28;1069;-81
2022/01/28 01:37:31;;;;;;;5.35;1.80;;;;;;;8.07;58.70;102165.09;682371;28;1224;-81
2022/01/28 01:37:51;;;;;;;4.63;1.70;;;;;;;8.04;58.79;102164.00;687880;28;1403;-81
2022/01/28 01:38:12;;;;;;;4.87;1.70;;;;;;;8.02;59.02;102170.78;684000;28;1807;-81
2022/01/28 01:38:36;;;;;;;5.50;1.70;;;;;;;8.00;58.95;102169.78;685039;28;1244;-81
2022/01/28 01:38:56;;;;;;;6.65;1.80;;;;;;;7.98;58.94;102161.00;679890;29;914;-81
2022/01/28 01:39:23;;;;;;;6.05;1.60;;;;;;;7.99;59.12;102163.69;684921;28;1231;-81
2022/01/28 01:39:44;;;;;;;5.20;1.60;;;;;;;8.01;58.90;102169.00;684623;28;1040;-81
2022/01/28 01:40:05;;;;;;;7.10;1.60;;;;;;;8.02;58.80;102169.09;684631;28;1604;-81
2022/01/28 01:40:32;;;;;;;8.02;1.90;;;;;;;8.03;59.11;102177.78;682456;28;1113;-81
2022/01/28 01:40:57;;;;;;;7.97;1.90;;;;;;;8.02;59.17;102175.97;682596;29;935;-81
2022/01/28 01:41:28;;;;;;;6.53;1.60;;;;;;;8.01;59.09;102166.38;682340;28;1385;-81
2022/01/28 01:42:13;;;;;;;5.78;1.42;;;;;;;8.00;59.38;102162.00;682367;29;1219;-80
2022/01/28 01:42:53;;;;;;;3.80;1.67;;;;;;;8.02;59.42;102170.78;682122;28;1321;-81
2022/01/28 01:43:32;;;;;;;10.30;1.80;;;;;;;7.99;60.03;102157.59;686561;28;1906;-81
2022/01/28 01:44:12;;;;;;;5.30;1.60;;;;;;;7.94;59.41;102162.53;687760;28;2021;-81
2022/01/28 01:52:01;;;;;;;5.60;2.00;;;;;;;7.95;59.82;102179.91;690297;28;1181;-81
2022/01/28 01:52:04;;;;;;;3.78;1.70;;;;;;;8.21;59.59;102204.00;695679;28;1143;-81
2022/01/28 01:52:25;;;;;;;6.78;1.70;;;;;;;8.23;59.74;102200.69;693247;28;1270;-80
2022/01/28 01:52:46;;;;;;;6.90;1.70;;;;;;;8.26;59.32;102207.78;687900;28;732;-81
2022/01/28 01:53:07;;;;;;;7.38;1.65;;;;;;;8.24;59.47;102201.63;684984;28;1124;-81
2022/01/28 01:53:27;;;;;;;6.23;1.63;;;;;;;8.26;59.25;102206.88;684801;28;1091;-81
2022/01/28 01:53:48;;;;;;;6.85;1.77;;;;;;;8.22;59.63;102200.59;687897;28;839;-82
2022/01/28 01:54:09;;;;;;;5.65;1.70;;;;;;;8.22;59.43;102193.72;687680;28;970;-81
2022/01/28 01:54:36;;;;;;;6.65;1.70;;;;;;;8.33;59.42;102201.25;687582;28;1523;-81
2022/01/28 01:54:57;;;;;;;5.15;1.52;;;;;;;8.30;59.47;102182.88;687766;28;894;-81
2022/01/28 01:55:17;;;;;;;3.75;1.52;;;;;;;8.28;59.43;102179.28;687607;28;1170;-81
2022/01/28 01:55:47;;;;;;;2.92;1.60;;;;;;;8.32;59.30;102165.66;687696;28;1036;-81
2022/01/28 01:56:08;;;;;;;5.38;1.75;;;;;;;8.44;59.36;102187.19;687618;28;1043;-81
2022/01/28 01:56:29;;;;;;;7.28;2.10;;;;;;;8.38;59.34;102192.03;690330;28;1174;-81
2022/01/28 01:56:49;;;;;;;7.30;2.17;;;;;;;8.34;59.25;102187.44;687640;28;1277;-81
2022/01/28 01:57:11;;;;;;;8.45;2.60;;;;;;;8.30;59.59;102182.88;685040;28;1016;-82
2022/01/28 01:57:33;;;;;;;8.95;2.60;;;;;;;8.31;59.28;102193.38;682148;28;1146;-81
2022/01/28 01:57:53;;;;;;;8.50;2.47;;;;;;;8.35;59.28;102195.34;685144;28;854;-82
2022/01/28 01:58:14;;;;;;;9.68;2.30;;;;;;;8.35;59.44;102197.03;690432;28;1267;-82
2022/01/28 01:58:36;;;;;;;7.55;2.20;;;;;;;8.33;59.30;102196.97;690928;28;1520;-82
2022/01/28 01:58:57;;;;;;;6.57;2.15;;;;;;;8.30;59.48;102198.47;687621;28;1264;-81
2022/01/28 01:59:18;;;;;;;6.30;2.20;;;;;;;8.25;59.66;102199.88;684861;28;1296;-81
2022/01/28 01:59:40;;;;;;;6.38;2.30;;;;;;;8.29;59.21;102201.88;684398;28;1234;-82
2022/01/28 02:00:01;;;;;;;4.78;2.10;;;;;;;8.28;59.37;102208.78;685178;28;1145;-81
2022/01/28 02:00:22;;;;;;;4.78;2.20;;;;;;;8.22;59.64;102201.50;682222;28;879;-81
2022/01/28 02:00:42;;;;;;;4.60;2.00;;;;;;;8.29;59.62;102209.69;684736;28;1247;-82
2022/01/28 02:01:03;;;;;;;6.03;2.00;;;;;;;8.31;59.51;102210.69;687602;28;1106;-82
2022/01/28 02:01:23;;;;;;;6.03;2.03;;;;;;;8.33;59.71;102216.84;687770;28;1151;-82
2022/01/28 02:01:44;;;;;;;7.00;2.20;;;;;;;8.38;59.50;102218.03;684734;28;1202;-82
2022/01/28 02:02:06;;;;;;;5.70;2.07;;;;;;;8.33;59.33;102203.84;690356;28;1173;-81
2022/01/28 02:02:26;;;;;;;5.90;1.90;;;;;;;8.28;59.72;102215.72;690322;28;1099;-81
2022/01/28 02:02:47;;;;;;;6.82;2.00;;;;;;;8.22;59.76;102217.13;687840;28;799;-81
2022/01/28 02:03:07;;;;;;;6.88;1.90;;;;;;;8.16;59.56;102211.53;684864;28;1111;-81
2022/01/28 02:03:29;;;;;;;7.63;1.90;;;;;;;8.22;59.92;102211.00;687843;28;1481;-81
2022/01/28 02:03:50;;;;;;;8.13;1.80;;;;;;;8.24;60.30;102214.63;688315;28;920;-81
2022/01/28 02:04:10;;;;;;;8.70;1.90;;;;;;;8.18;59.89;102212.50;687758;28;1138;-82
2022/01/28 02:04:31;;;;;;;10.20;1.90;;;;;;;8.25;59.80;102215.50;686513;28;1165;-82
2022/01/28 02:04:52;;;;;;;9.10;1.80;;;;;;;8.29;59.70;102207.09;684221;28;1261;-82
2022/01/28 02:05:12;;;;;;;7.07;1.70;;;;;;;8.24;60.14;102178.22;687596;28;1486;-82
2022/01/28 02:05:33;;;;;;;5.20;1.63;;;;;;;8.29;59.68;102175.88;690804;28;1047;-82
2022/01/28 02:05:58;;;;;;;4.90;1.77;;;;;;;8.31;59.61;102189.88;691048;28;786;-82
2022/01/28 02:06:21;;;;;;;4.82;1.58;;;;;;;8.22;60.20;102193.72;688246;28;1247;-81
2022/01/28 02:06:42;;;;;;;5.72;1.65;;;;;;;8.07;60.34;102195.38;685041;28;1108;-82
2022/01/28 02:07:04;;;;;;;6.70;1.67;;;;;;;8.00;60.50;102201.91;682709;28;1208;-82
2022/01/28 02:07:25;;;;;;;5.88;1.60;;;;;;;8.05;60.60;102212.59;683912;28;1419;-81
2022/01/28 02:07:46;;;;;;;4.05;1.40;;;;;;;7.99;60.57;102181.00;685539;28;1284;-81
2022/01/28 02:08:06;;;;;;;5.47;1.40;;;;;;;8.00;60.55;102196.72;688075;28;1406;-81
2022/01/28 02:08:29;;;;;;;6.63;1.43;;;;;;;7.98;60.42;102194.81;688947;28;1321;-81
2022/01/28 02:08:51;;;;;;;6.28;1.50;;;;;;;7.99;60.46;102192.28;691034;28;908;-81
2022/01/28 02:09:11;;;;;;;5.22;1.55;;;;;;;7.88;60.44;102189.06;693613;28;1059;-82
2022/01/28 02:09:32;;;;;;;4.20;1.60;;;;;;;7.91;60.79;102181.44;689091;28;1072;-82
2022/01/28 02:09:53;;;;;;;6.20;1.67;;;;;;;7.94;60.77;102183.31;685533;28;804;-81
2022/01/28 02:10:14;;;;;;;6.97;1.60;;;;;;;7.83;60.82;102177.47;685487;28;1914;-81
2022/01/28 02:10:35;;;;;;;7.85;1.50;;;;;;;7.81;61.21;102192.06;690816;28;1375;-81
2022/01/28 02:10:58;;;;;;;6.10;1.47;;;;;;;7.73;61.06;102177.69;690786;28;1769;-81
2022/01/28 02:11:19;;;;;;;6.28;1.48;;;;;;;7.48;61.47;102176.13;688281;28;1079;-81
2022/01/28 02:11:40;;;;;;;5.57;1.60;;;;;;;7.56;61.72;102180.13;692046;28;1148;-81
2022/01/28 02:12:01;;;;;;;4.80;1.60;;;;;;;7.53;61.97;102190.31;690844;28;1388;-80
2022/01/28 02:12:22;;;;;;;3.30;1.60;;;;;;;7.56;61.74;102193.13;685685;28;815;-81
2022/01/28 02:12:48;;;;;;;3.40;1.50;;;;;;;7.52;61.78;102185.94;684238;28;1238;-81
2022/01/28 02:13:09;;;;;;;4.88;1.75;;;;;;;7.55;61.68;102199.09;688222;28;1395;-80
2022/01/28 02:13:47;;;;;;;5.05;1.88;;;;;;;7.58;61.88;102188.00;690016;28;1207;-80
2022/01/28 02:14:08;;;;;;;3.25;1.70;;;;;;;7.64;61.29;102194.50;688209;28;1095;-80
2022/01/28 02:14:30;;;;;;;3.10;1.70;;;;;;;7.63;60.95;102197.00;690798;28;1315;-81
2022/01/28 02:14:50;;;;;;;3.97;1.75;;;;;;;7.64;61.34;102202.31;690748;28;1598;-81
2022/01/28 02:15:11;;;;;;;4.70;1.80;;;;;;;7.54;60.91;102180.03;691008;28;1088;-80
2022/01/28 02:15:32;;;;;;;7.38;1.70;;;;;;;7.43;60.78;102203.53;691670;28;1138;-80
2022/01/28 02:15:53;;;;;;;6.57;1.70;;;;;;;7.47;60.93;102188.25;690972;28;1228;-80
2022/01/28 02:16:15;;;;;;;5.72;1.58;;;;;;;7.58;61.00;102214.91;691472;28;1155;-81
2022/01/28 02:16:36;;;;;;;4.93;1.60;;;;;;;7.59;60.88;102192.41;692285;28;1254;-80
2022/01/28 02:16:57;;;;;;;4.47;1.63;;;;;;;7.54;60.80;102194.72;693729;28;1109;-80
2022/01/28 02:17:17;;;;;;;6.07;1.90;;;;;;;7.46;60.75;102198.53;693702;28;1076;-80
2022/01/28 02:17:41;;;;;;;6.07;2.03;;;;;;;7.58;60.79;102201.91;688125;28;1190;-80
2022/01/28 02:18:01;;;;;;;8.50;2.15;;;;;;;7.59;60.35;102195.00;685570;28;1064;-80
2022/01/28 02:18:23;;;;;;;9.25;2.17;;;;;;;7.54;60.45;102202.50;687197;28;811;-81
2022/01/28 02:18:44;;;;;;;10.00;2.08;;;;;;;7.53;60.90;102203.31;687876;28;1167;-80
2022/01/28 02:19:04;;;;;;;8.98;1.70;;;;;;;7.40;60.97;102209.44;689284;28;1698;-80
2022/01/28 02:19:26;;;;;;;7.22;1.60;;;;;;;7.46;61.31;102203.72;687380;28;1457;-80
2022/01/28 02:19:47;;;;;;;5.88;1.70;;;;;;;7.49;60.94;102194.41;690617;28;791;-80
2022/01/28 02:20:11;;;;;;;4.90;1.70;;;;;;;7.51;60.49;102207.53;691034;28;1096;-80